»·PEaware :: N333ZS KFAT-KSBP

N333ZS :: KFAT-KSBP

FLIGHT INFORMATION

Flight Status: Arrived
Operator: Privately registered:
United States
More flights under this callsign
Pilot: Judd H. (29974)
Aircraft: CESSNA 182 SKYLANE
(C182)
More flights by this aircraft type
Origin: KFAT Fresno Yosemite Intl
United States
Destination: KSBP San Luis Co Regl
United States
More flights between these airports :: More routes between these airports
Route: PXN PRB
File this flight plan on PilotEdge
Remarks:
Altitude:
(Current/Filed)
8,500ft
Speed:
(Current/Filed)
120kts
Departed: 28-Aug-20 12:54 PM
Arrived: 28-Aug-20 02:10 PM
Distance/Time
Traveled:
103nm/1:16
Distance/Time
To Go:
Arrived

Flight Plot

Page will automatically refresh every two minutes.

Flight plan parsing failed; only flown route is shown


Map Options




Map Legend


Flown Route
Filed Route
Departure Airport
Arrival Airport
Navaid (VOR, NDB)
Fix

Horizontal Profiles

Position Reports

Time Latitude Longitude Heading Altitude Ground
Speed
28-Aug-20 12:37 36.776398 -119.725859 305 339ft 0kts
28-Aug-20 12:38 36.776398 -119.725859 305 339ft 0kts
28-Aug-20 12:39 36.776398 -119.725859 305 339ft 0kts
28-Aug-20 12:40 36.776398 -119.725859 305 339ft 0kts
28-Aug-20 12:41 36.776398 -119.725860 305 339ft 0kts
28-Aug-20 12:42 36.776399 -119.725861 305 339ft 0kts
28-Aug-20 12:43 36.776399 -119.725862 305 339ft 0kts
28-Aug-20 12:44 36.776400 -119.725863 305 339ft 0kts
28-Aug-20 12:45 36.776400 -119.725864 305 339ft 0kts
28-Aug-20 12:46 36.776401 -119.725865 305 339ft 0kts
28-Aug-20 12:47 36.776401 -119.725865 305 339ft 0kts
28-Aug-20 12:48 36.776406 -119.725873 305 339ft 2kts
28-Aug-20 12:49 36.776088 -119.722789 123 339ft 31kts
28-Aug-20 12:50 36.771059 -119.714007 129 339ft 27kts
28-Aug-20 12:51 36.769654 -119.710678 331 339ft 0kts
28-Aug-20 12:52 36.769656 -119.710679 331 339ft 0kts
28-Aug-20 12:53 36.771936 -119.713039 305 339ft 55kts
28-Aug-20 12:54 36.787587 -119.739497 306 759ft 113kts
28-Aug-20 12:55 36.807255 -119.771670 307 1050ft 120kts
28-Aug-20 12:56 36.829678 -119.805481 310 1076ft 130kts
28-Aug-20 12:57 36.850727 -119.839614 303 1306ft 122kts
28-Aug-20 12:58 36.870198 -119.874376 301 1503ft 121kts
28-Aug-20 12:59 36.865515 -119.909069 234 1932ft 108kts
28-Aug-20 13:00 36.846223 -119.937573 227 2364ft 106kts
28-Aug-20 13:01 36.827933 -119.966841 233 2758ft 106kts
28-Aug-20 13:02 36.811721 -119.997518 252 3139ft 107kts
28-Aug-20 13:03 36.803140 -120.032518 253 3510ft 101kts
28-Aug-20 13:04 36.795831 -120.067266 255 3897ft 104kts
28-Aug-20 13:05 36.788794 -120.101730 252 4337ft 101kts
28-Aug-20 13:06 36.781263 -120.135848 252 4727ft 103kts
28-Aug-20 13:07 36.772761 -120.169290 248 5200ft 101kts
28-Aug-20 13:08 36.764712 -120.203322 253 5725ft 103kts
28-Aug-20 13:09 36.755601 -120.237457 253 6244ft 103kts
28-Aug-20 13:10 36.746755 -120.272065 257 6703ft 105kts
28-Aug-20 13:11 36.742851 -120.308534 264 7131ft 107kts
28-Aug-20 13:12 36.741143 -120.346123 268 7533ft 109kts
28-Aug-20 13:13 36.739314 -120.383828 265 7940ft 110kts
28-Aug-20 13:14 36.737845 -120.421723 263 8363ft 109kts
28-Aug-20 13:15 36.735534 -120.462558 264 8486ft 127kts
28-Aug-20 13:16 36.732930 -120.507752 262 8534ft 135kts
28-Aug-20 13:17 36.729900 -120.554471 264 8584ft 135kts
28-Aug-20 13:18 36.727416 -120.602351 265 8527ft 140kts
28-Aug-20 13:19 36.717994 -120.647636 219 8511ft 138kts
28-Aug-20 13:20 36.683173 -120.662946 191 8567ft 132kts
28-Aug-20 13:21 36.647659 -120.673400 192 8617ft 131kts
28-Aug-20 13:22 36.611753 -120.685308 191 8539ft 138kts
28-Aug-20 13:23 36.575085 -120.697532 192 8519ft 135kts
28-Aug-20 13:24 36.538792 -120.710118 193 8492ft 135kts
28-Aug-20 13:25 36.502549 -120.723348 192 8470ft 135kts
28-Aug-20 13:26 36.465632 -120.723275 172 8452ft 132kts
28-Aug-20 13:27 36.428419 -120.721430 174 8380ft 134kts
28-Aug-20 13:28 36.391815 -120.717336 170 8368ft 132kts
28-Aug-20 13:29 36.356099 -120.714488 174 8474ft 128kts
28-Aug-20 13:30 36.319493 -120.711117 170 8432ft 130kts
28-Aug-20 13:31 36.283534 -120.704741 170 8407ft 131kts
28-Aug-20 13:32 36.247790 -120.699436 170 8449ft 129kts
28-Aug-20 13:33 36.212818 -120.692507 167 8505ft 128kts
28-Aug-20 13:34 36.177780 -120.684107 169 8565ft 127kts
28-Aug-20 13:35 36.142870 -120.674418 168 8594ft 128kts
28-Aug-20 13:36 36.107553 -120.666950 177 8618ft 129kts
28-Aug-20 13:37 36.071637 -120.664186 177 8631ft 129kts
28-Aug-20 13:38 36.035527 -120.661346 175 8620ft 131kts
28-Aug-20 13:39 35.999047 -120.658827 178 8615ft 130kts
28-Aug-20 13:40 35.962942 -120.657427 179 8636ft 129kts
28-Aug-20 13:41 35.926701 -120.656022 181 8637ft 129kts
28-Aug-20 13:42 35.890406 -120.656432 178 8589ft 133kts
28-Aug-20 13:43 35.853666 -120.652289 171 8555ft 132kts
28-Aug-20 13:44 35.816939 -120.647738 174 8519ft 132kts
28-Aug-20 13:45 35.780220 -120.643380 172 8484ft 132kts
28-Aug-20 13:46 35.743486 -120.637804 173 8446ft 132kts
28-Aug-20 13:47 35.707174 -120.631471 171 8430ft 132kts
28-Aug-20 13:48 35.675059 -120.626719 173 7737ft 107kts
28-Aug-20 13:49 35.643206 -120.628607 184 7207ft 120kts
28-Aug-20 13:50 35.609278 -120.634373 183 6743ft 128kts
28-Aug-20 13:51 35.572895 -120.635165 180 6161ft 132kts
28-Aug-20 13:52 35.535457 -120.634064 180 5526ft 134kts
28-Aug-20 13:53 35.498361 -120.633883 178 4999ft 132kts
28-Aug-20 13:54 35.462296 -120.634388 185 4599ft 129kts
28-Aug-20 13:55 35.426394 -120.637035 181 4212ft 128kts
28-Aug-20 13:56 35.390422 -120.638683 184 3813ft 130kts
28-Aug-20 13:57 35.353825 -120.640968 182 3331ft 136kts
28-Aug-20 13:58 35.315647 -120.641796 183 2803ft 136kts
28-Aug-20 13:59 35.277395 -120.645033 185 1909ft 127kts
28-Aug-20 14:00 35.248755 -120.635415 132 925ft 92kts
28-Aug-20 14:01 35.234515 -120.608396 125 1020ft 101kts
28-Aug-20 14:03 35.216916 -120.603732 276 1182ft 107kts
28-Aug-20 14:04 35.232090 -120.631722 301 417ft 109kts
28-Aug-20 14:05 35.251334 -120.665281 312 702ft 121kts
28-Aug-20 14:06 35.258308 -120.647451 129 940ft 112kts
28-Aug-20 14:07 35.234742 -120.614726 129 958ft 135kts
28-Aug-20 14:08 35.220445 -120.613398 312 834ft 93kts
28-Aug-20 14:09 35.235314 -120.637454 302 215ft 63kts
28-Aug-20 14:10 35.238042 -120.639770 38 215ft 6kts
28-Aug-20 14:11 35.238335 -120.639626 312 215ft 0kts

Navigation Log

Ident Type
Flight plan parsing failed, navigation log unavailable